Time;durP1;ratioP1;P1;durP2;ratioP2;P2;SDS_P1;SDS_P2;PMS_P1;PMS_P2;Temp;Humidity;BMP_temperature;BMP_pressure;BME280_temperature;BME280_humidity;BME280_pressure;Samples;Min_cycle;Max_cycle;Signal;HPM_P1;HPM_P2
2021/05/11 00:01:28;;;;;;;4.93;4.53;;;;;;;16.23;83.47;99862.06;5083379;28;20394;-77
2021/05/11 00:03:54;;;;;;;5.50;5.10;;;;;;;16.25;83.84;99867.22;5083429;28;20247;-77
2021/05/11 00:06:20;;;;;;;5.17;4.77;;;;;;;16.31;83.66;99852.91;5083641;28;20284;-77
2021/05/11 00:08:45;;;;;;;6.20;5.70;;;;;;;15.98;84.52;99851.94;5082835;28;20245;-77
2021/05/11 00:11:11;;;;;;;4.83;4.53;;;;;;;16.03;84.78;99851.69;5082620;28;20600;-78
2021/05/11 00:13:37;;;;;;;5.60;5.20;;;;;;;16.17;83.85;99824.66;5082324;28;20729;-78
2021/05/11 00:16:04;;;;;;;5.23;4.93;;;;;;;16.29;83.64;99824.00;5083782;28;20207;-78
2021/05/11 00:18:32;;;;;;;6.30;5.90;;;;;;;16.09;84.73;99867.16;5083089;28;20251;-78
2021/05/11 00:20:58;;;;;;;7.03;6.63;;;;;;;15.57;86.66;99883.75;5083160;28;20206;-77
2021/05/11 00:23:24;;;;;;;6.03;5.57;;;;;;;15.70;85.96;99839.28;5082401;28;20215;-77
2021/05/11 00:25:50;;;;;;;6.80;6.40;;;;;;;15.85;85.98;99841.16;5082566;28;20329;-78
2021/05/11 00:28:16;;;;;;;6.87;6.37;;;;;;;15.94;85.43;99863.56;5082995;28;20248;-76
2021/05/11 00:30:42;;;;;;;6.37;5.73;;;;;;;15.61;86.64;99889.72;5082792;28;20207;-77
2021/05/11 00:33:07;;;;;;;7.00;6.53;;;;;;;15.43;87.34;99873.88;5082192;28;20268;-77
2021/05/11 00:35:34;;;;;;;6.23;5.83;;;;;;;15.67;86.42;99831.53;5082519;28;20211;-76
2021/05/11 00:38:00;;;;;;;6.83;6.43;;;;;;;15.85;85.84;99824.53;5083329;28;20610;-77
2021/05/11 00:40:26;;;;;;;6.33;5.97;;;;;;;15.92;85.86;99841.72;5083422;28;20658;-77
2021/05/11 00:42:52;;;;;;;7.50;7.00;;;;;;;15.94;85.75;99846.91;5082272;28;20743;-78
2021/05/11 00:45:17;;;;;;;7.10;6.70;;;;;;;16.00;85.49;99842.19;5083522;28;20204;-78
2021/05/11 00:47:43;;;;;;;7.23;6.33;;;;;;;16.10;84.79;99844.34;5082148;28;20764;-77
2021/05/11 00:50:11;;;;;;;5.83;5.50;;;;;;;16.18;84.39;99843.00;5082489;28;20211;-77
2021/05/11 00:52:39;;;;;;;5.50;5.20;;;;;;;16.25;84.03;99840.91;5082881;28;20669;-75
2021/05/11 00:55:06;;;;;;;4.93;4.63;;;;;;;16.28;84.04;99825.78;5082417;28;20239;-77
2021/05/11 00:57:33;;;;;;;6.93;6.53;;;;;;;16.20;84.48;99820.09;5082795;28;20258;-76
2021/05/11 01:00:01;;;;;;;4.77;4.53;;;;;;;16.26;83.90;99817.13;5082675;28;20295;-78
2021/05/11 01:02:27;;;;;;;5.67;5.03;;;;;;;16.33;83.25;99819.44;5081666;28;20306;-77
2021/05/11 01:04:53;;;;;;;7.23;6.83;;;;;;;16.36;83.15;99808.75;5082596;28;20203;-75
2021/05/11 01:07:19;;;;;;;5.93;5.63;;;;;;;16.41;82.95;99804.06;5082557;28;20223;-76
2021/05/11 01:09:46;;;;;;;7.10;6.70;;;;;;;16.38;83.31;99813.00;5082758;28;20211;-77
2021/05/11 01:12:12;;;;;;;6.87;6.40;;;;;;;16.37;83.43;99811.31;5081603;28;20215;-77
2021/05/11 01:14:38;;;;;;;6.10;5.70;;;;;;;16.32;83.53;99813.31;5082069;28;20211;-78
2021/05/11 01:17:05;;;;;;;6.50;6.10;;;;;;;16.37;82.70;99795.50;5085459;28;20622;-77
2021/05/11 01:19:41;;;;;;;6.17;5.87;;;;;;;16.41;83.02;99798.81;5085833;28;20245;-76
2021/05/11 01:22:23;;;;;;;6.77;6.27;;;;;;;16.47;82.19;99791.44;5086173;28;20218;-77
2021/05/11 01:24:51;;;;;;;7.53;7.03;;;;;;;16.41;82.58;99783.88;5085338;28;20435;-77
2021/05/11 01:27:29;;;;;;;8.77;8.13;;;;;;;16.41;82.88;99783.00;5085721;28;20729;-77
2021/05/11 01:30:03;;;;;;;8.77;8.03;;;;;;;16.44;82.59;99780.22;5085844;28;20202;-77
2021/05/11 01:33:01;;;;;;;10.23;9.53;;;;;;;16.44;83.22;99774.94;5085739;28;20206;-77
2021/05/11 01:44:02;;;;;;;27.73;11.50;;;;;;;16.48;82.96;99793.13;5085263;28;20253;-78
2021/05/11 01:46:41;;;;;;;12.07;11.17;;;;;;;16.35;83.55;99789.47;5085251;28;20211;-76
2021/05/11 01:49:11;;;;;;;10.40;9.70;;;;;;;16.23;84.03;99792.72;5084979;28;20653;-77
2021/05/11 01:52:05;;;;;;;10.60;9.93;;;;;;;16.30;83.36;99783.59;5085926;28;20206;-77
2021/05/11 01:54:47;;;;;;;10.63;9.93;;;;;;;16.35;83.00;99775.41;5084572;28;20218;-77
2021/05/11 02:17:45;;;;;;;11.57;10.87;;;;;;;16.18;84.19;99771.06;5085218;28;20267;-76
2021/05/11 02:24:53;;;;;;;13.83;12.73;;;;;;;15.73;86.19;99783.03;5084359;28;20293;-77
2021/05/11 02:27:20;;;;;;;12.77;11.83;;;;;;;15.63;86.69;99770.31;5083709;28;20266;-76
2021/05/11 02:29:46;;;;;;;14.70;13.57;;;;;;;15.75;86.08;99781.19;5084263;28;20746;-78
2021/05/11 02:32:16;;;;;;;14.10;13.00;;;;;;;15.65;86.64;99794.75;5083948;28;20301;-77
2021/05/11 02:34:42;;;;;;;15.17;14.17;;;;;;;15.48;87.42;99798.25;5084610;28;20210;-77
2021/05/11 02:37:07;;;;;;;14.90;14.00;;;;;;;15.62;87.23;99789.69;5084434;28;20432;-76
2021/05/11 02:39:33;;;;;;;13.57;12.67;;;;;;;15.63;87.11;99782.63;5085076;28;20210;-78
2021/05/11 02:41:59;;;;;;;12.80;11.90;;;;;;;15.80;86.59;99787.09;5083315;28;20244;-77
2021/05/11 02:44:26;;;;;;;14.47;13.47;;;;;;;15.80;86.25;99781.81;5083839;28;20245;-78
2021/05/11 02:46:52;;;;;;;16.37;15.00;;;;;;;15.69;86.79;99791.03;5084407;28;20394;-77
2021/05/11 02:49:18;;;;;;;16.83;15.73;;;;;;;15.55;87.56;99787.44;5083880;28;20324;-77
2021/05/11 02:51:44;;;;;;;19.27;17.87;;;;;;;15.46;87.73;99779.06;5084790;28;20217;-78
2021/05/11 02:54:11;;;;;;;17.10;15.80;;;;;;;15.52;88.05;99777.91;5084126;28;20294;-76
2021/05/11 02:56:37;;;;;;;15.33;14.23;;;;;;;15.72;87.16;99773.41;5083689;28;20621;-76
2021/05/11 02:59:03;;;;;;;14.47;13.47;;;;;;;15.88;86.29;99774.38;5084503;28;20621;-77
2021/05/11 03:01:30;;;;;;;16.17;15.07;;;;;;;15.84;86.33;99781.56;5084003;28;20706;-77
2021/05/11 03:03:56;;;;;;;16.57;15.47;;;;;;;15.57;87.27;99791.66;5084209;28;20252;-76
2021/05/11 03:06:21;;;;;;;17.60;16.40;;;;;;;15.23;88.82;99801.22;5084051;28;20265;-77
2021/05/11 03:08:47;;;;;;;18.80;17.50;;;;;;;14.99;90.21;99803.25;5083675;28;20231;-76
2021/05/11 03:11:13;;;;;;;18.13;16.83;;;;;;;15.14;89.84;99806.91;5084072;28;21225;-76
2021/05/11 03:13:39;;;;;;;18.50;17.20;;;;;;;15.20;89.49;99813.66;5082831;28;20705;-77
2021/05/11 03:16:05;;;;;;;17.63;16.33;;;;;;;15.08;90.13;99813.34;5084428;28;20206;-77
2021/05/11 03:18:32;;;;;;;15.83;14.73;;;;;;;15.26;89.59;99808.09;5083133;28;20285;-77
2021/05/11 03:20:58;;;;;;;13.00;12.20;;;;;;;15.35;89.02;99794.53;5083630;28;20356;-78
2021/05/11 03:23:23;;;;;;;14.47;13.47;;;;;;;15.35;89.02;99794.53;5084143;28;20202;-77
2021/05/11 03:25:49;;;;;;;16.63;15.43;;;;;;;15.26;89.02;99802.84;5083513;28;20203;-77
2021/05/11 03:28:15;;;;;;;18.53;17.23;;;;;;;15.01;90.38;99805.81;5083804;28;20237;-76
2021/05/11 03:30:42;;;;;;;16.17;14.97;;;;;;;15.09;90.50;99803.69;5083209;28;20277;-77
2021/05/11 03:33:09;;;;;;;15.60;14.60;;;;;;;15.33;89.84;99800.78;5082327;28;20214;-77
2021/05/11 03:35:35;;;;;;;15.37;14.27;;;;;;;15.40;89.22;99799.53;5083002;28;20244;-77
2021/05/11 03:38:02;;;;;;;13.67;12.67;;;;;;;15.51;87.94;99793.78;5083474;28;20250;-77
2021/05/11 03:40:28;;;;;;;14.23;13.23;;;;;;;15.60;87.88;99788.03;5083250;28;20699;-77
2021/05/11 03:42:59;;;;;;;14.00;13.10;;;;;;;15.56;87.47;99790.00;5082887;28;20761;-76
2021/05/11 03:45:30;;;;;;;12.93;12.07;;;;;;;15.62;87.26;99783.56;5083617;28;20449;-77
2021/05/11 03:47:56;;;;;;;13.10;12.20;;;;;;;15.68;86.69;99780.63;5083406;28;20229;-77
2021/05/11 03:50:22;;;;;;;13.97;13.07;;;;;;;15.78;86.49;99783.69;5082647;28;20552;-78
2021/05/11 03:52:49;;;;;;;14.57;13.57;;;;;;;15.79;86.39;99788.00;5082941;28;20206;-78
2021/05/11 03:55:14;;;;;;;13.97;13.07;;;;;;;15.81;85.80;99796.66;5083591;28;20243;-77
2021/05/11 03:57:40;;;;;;;15.30;14.20;;;;;;;15.86;85.42;99792.03;5083043;28;20223;-76
2021/05/11 04:00:07;;;;;;;14.10;13.17;;;;;;;15.79;85.27;99796.72;5083640;28;20239;-76
2021/05/11 04:02:33;;;;;;;14.30;13.40;;;;;;;15.81;85.39;99789.59;5082961;28;20634;-76
2021/05/11 04:04:59;;;;;;;16.77;15.33;;;;;;;15.75;85.93;99797.81;5083226;28;20313;-77
2021/05/11 04:07:25;;;;;;;16.20;15.13;;;;;;;15.71;85.70;99790.97;5082557;28;20616;-77
2021/05/11 04:09:54;;;;;;;17.37;16.27;;;;;;;15.79;85.84;99791.47;5084061;28;20234;-76
2021/05/11 04:12:47;;;;;;;16.27;15.17;;;;;;;15.84;85.55;99789.47;5084471;28;20209;-75
2021/05/11 04:17:58;;;;;;;16.40;15.30;;;;;;;15.75;86.02;99778.56;5082677;28;20751;-77
2021/05/11 04:20:24;;;;;;;15.60;14.40;;;;;;;15.85;85.28;99750.84;5083072;28;20721;-77
2021/05/11 04:22:49;;;;;;;16.07;14.77;;;;;;;15.91;85.13;99734.72;5082589;28;20636;-76
2021/05/11 04:25:16;;;;;;;16.47;15.40;;;;;;;15.89;85.29;99740.06;5082343;28;20206;-77
2021/05/11 04:27:42;;;;;;;15.77;14.73;;;;;;;15.94;85.03;99760.88;5082292;28;20259;-77
2021/05/11 04:30:09;;;;;;;15.33;14.27;;;;;;;16.00;84.66;99754.47;5082683;28;20205;-76
2021/05/11 04:32:35;;;;;;;15.47;14.40;;;;;;;16.04;84.34;99750.75;5082468;28;20214;-76
2021/05/11 04:35:01;;;;;;;15.50;14.20;;;;;;;16.11;84.23;99741.56;5083064;28;20207;-77
2021/05/11 04:37:27;;;;;;;15.17;14.17;;;;;;;16.10;83.67;99739.03;5082494;28;20761;-76
2021/05/11 04:39:54;;;;;;;13.93;12.90;;;;;;;16.05;83.82;99742.75;5081701;28;20215;-76
2021/05/11 04:42:21;;;;;;;14.67;13.57;;;;;;;16.01;84.16;99745.63;5082362;28;20355;-77
2021/05/11 04:44:47;;;;;;;14.13;13.13;;;;;;;16.04;83.53;99732.31;5082327;28;20234;-77
2021/05/11 04:47:15;;;;;;;13.07;12.27;;;;;;;15.96;83.61;99735.34;5083008;28;20226;-76
2021/05/11 04:49:41;;;;;;;12.57;11.47;;;;;;;15.95;83.33;99744.16;5082267;28;20215;-77
2021/05/11 04:52:07;;;;;;;11.97;11.07;;;;;;;15.97;83.10;99742.28;5085500;28;20591;-76
2021/05/11 04:54:33;;;;;;;12.37;11.37;;;;;;;15.98;83.14;99745.78;5086311;28;20211;-77
2021/05/11 04:56:59;;;;;;;13.47;12.37;;;;;;;15.97;83.30;99736.19;5085270;28;20290;-76
2021/05/11 04:59:25;;;;;;;12.77;11.90;;;;;;;16.01;83.24;99735.09;5086700;28;20292;-76
2021/05/11 05:01:52;;;;;;;11.43;10.73;;;;;;;15.88;83.80;99738.38;5086628;28;20237;-77
2021/05/11 05:04:18;;;;;;;12.57;11.57;;;;;;;15.88;83.35;99735.75;5086203;28;20211;-77
2021/05/11 05:06:45;;;;;;;10.67;9.90;;;;;;;15.88;83.10;99741.00;5085895;28;20650;-76
2021/05/11 05:09:11;;;;;;;10.20;9.53;;;;;;;15.82;83.32;99751.84;5086185;28;20266;-78
2021/05/11 05:11:40;;;;;;;10.03;9.37;;;;;;;15.81;81.90;99744.88;5086385;28;20263;-77
2021/05/11 05:14:06;;;;;;;9.37;8.77;;;;;;;15.76;82.58;99743.44;5085249;28;20321;-76
2021/05/11 05:16:34;;;;;;;8.70;8.10;;;;;;;15.76;82.47;99751.31;5086118;28;20208;-78
2021/05/11 05:19:00;;;;;;;8.73;8.13;;;;;;;15.61;82.27;99745.88;5084690;28;20256;-78
2021/05/11 05:21:26;;;;;;;9.20;8.60;;;;;;;15.65;82.41;99742.16;5086002;28;20209;-77
2021/05/11 05:24:00;;;;;;;8.60;7.83;;;;;;;15.65;82.35;99738.66;5085173;28;20236;-78
2021/05/11 05:26:28;;;;;;;8.33;7.63;;;;;;;15.59;82.46;99733.72;5086920;28;20261;-80
2021/05/11 05:28:55;;;;;;;8.53;7.87;;;;;;;15.72;81.95;99723.41;5087916;28;20236;-78
2021/05/11 05:31:21;;;;;;;8.33;7.70;;;;;;;15.76;82.27;99720.59;5087905;28;20543;-80
2021/05/11 05:33:48;;;;;;;10.17;7.77;;;;;;;15.67;82.34;99723.66;5087934;28;20214;-79
2021/05/11 05:36:13;;;;;;;7.13;6.63;;;;;;;15.71;82.01;99717.31;5087443;28;20234;-79
2021/05/11 05:38:41;;;;;;;7.17;6.67;;;;;;;15.73;81.39;99725.16;5087511;28;20588;-80
2021/05/11 05:41:09;;;;;;;6.40;5.77;;;;;;;15.61;80.92;99718.72;5087203;28;20222;-80
2021/05/11 05:43:35;;;;;;;6.67;6.10;;;;;;;15.63;80.90;99716.84;5088434;28;20588;-81
2021/05/11 05:46:01;;;;;;;5.93;5.43;;;;;;;15.64;81.45;99729.94;5088542;28;20206;-79
2021/05/11 05:48:27;;;;;;;5.13;4.83;;;;;;;15.60;79.89;99749.44;5089196;28;20673;-81
2021/05/11 05:50:56;;;;;;;4.30;4.03;;;;;;;15.60;79.43;99736.28;5087785;28;20232;-81
2021/05/11 05:53:25;;;;;;;4.40;4.10;;;;;;;15.61;79.18;99722.19;5088834;28;20284;-80
2021/05/11 05:55:51;;;;;;;4.30;3.80;;;;;;;15.57;79.93;99714.53;5089528;28;20206;-80
2021/05/11 05:58:17;;;;;;;4.40;4.10;;;;;;;15.58;79.67;99719.72;5087599;28;20691;-79
2021/05/11 06:00:44;;;;;;;4.67;4.27;;;;;;;15.58;79.43;99727.63;5088322;28;20228;-80
2021/05/11 06:03:28;;;;;;;3.80;3.50;;;;;;;15.61;78.70;99723.97;5088068;28;20684;-77
2021/05/11 06:05:54;;;;;;;4.23;3.20;;;;;;;15.63;78.67;99719.47;5086790;28;20236;-79
2021/05/11 06:08:20;;;;;;;4.03;3.83;;;;;;;15.60;80.37;99717.88;5085810;28;20286;-78
2021/05/11 06:10:46;;;;;;;4.10;3.80;;;;;;;15.67;79.75;99702.59;5088507;28;20210;-80
2021/05/11 06:13:17;;;;;;;4.50;4.20;;;;;;;15.68;78.77;99702.53;5087606;28;20686;-79
2021/05/11 06:18:27;;;;;;;5.20;4.80;;;;;;;15.66;80.11;99698.28;5085292;28;20244;-79
2021/05/11 06:20:53;;;;;;;5.77;5.20;;;;;;;15.69;80.59;99698.13;5086294;28;20222;-78
2021/05/11 06:23:19;;;;;;;5.53;5.13;;;;;;;15.72;79.91;99692.72;5087224;28;20296;-78
2021/05/11 06:25:45;;;;;;;5.73;5.30;;;;;;;15.76;80.32;99703.97;5087788;28;20218;-79
2021/05/11 06:28:12;;;;;;;5.63;5.10;;;;;;;15.79;79.72;99712.53;5088311;28;20233;-80
2021/05/11 06:30:38;;;;;;;5.43;5.13;;;;;;;15.79;79.36;99709.88;5087512;28;20229;-80
2021/05/11 06:33:05;;;;;;;4.97;4.67;;;;;;;15.78;78.84;99712.63;5085919;28;20692;-81
2021/05/11 06:35:32;;;;;;;5.80;5.40;;;;;;;15.78;79.30;99723.16;5087665;28;20257;-82
2021/05/11 06:37:58;;;;;;;5.77;5.10;;;;;;;15.76;79.49;99712.69;5085406;28;20244;-79
2021/05/11 06:40:25;;;;;;;5.57;5.07;;;;;;;15.72;79.01;99708.50;5087727;28;20214;-77
2021/05/11 06:42:51;;;;;;;5.80;5.40;;;;;;;15.76;79.64;99711.84;5085646;28;20226;-78
2021/05/11 06:45:43;;;;;;;6.53;5.93;;;;;;;15.80;79.57;99719.50;5086210;28;20203;-78
2021/05/11 06:48:08;;;;;;;5.40;5.00;;;;;;;15.86;78.39;99729.69;5087564;28;20236;-78
2021/05/11 06:50:38;;;;;;;5.07;4.57;;;;;;;15.97;77.98;99758.09;5084839;28;20654;-77
2021/05/11 06:53:13;;;;;;;5.57;4.43;;;;;;;16.05;75.78;99762.94;5085237;28;20202;-77
2021/05/11 06:55:42;;;;;;;4.77;4.33;;;;;;;16.12;75.61;99764.34;5086890;28;20219;-78
2021/05/11 06:58:08;;;;;;;6.10;3.73;;;;;;;16.14;75.75;99759.84;5088178;28;20320;-79
2021/05/11 07:00:34;;;;;;;3.87;3.57;;;;;;;16.04;75.80;99750.75;5086752;28;20212;-77
2021/05/11 07:03:00;;;;;;;4.57;4.07;;;;;;;16.08;76.01;99754.91;5082975;28;20293;-76
2021/05/11 07:05:29;;;;;;;4.53;4.20;;;;;;;15.99;75.86;99748.31;5085284;28;20234;-78
2021/05/11 07:08:01;;;;;;;3.93;3.57;;;;;;;15.98;75.80;99751.06;5082709;28;20282;-77
2021/05/11 07:10:31;;;;;;;4.50;3.83;;;;;;;16.00;76.71;99743.94;5083568;28;20295;-77
2021/05/11 07:13:10;;;;;;;3.87;3.57;;;;;;;15.98;76.09;99733.47;5082328;28;20301;-76
2021/05/11 07:15:38;;;;;;;3.87;3.57;;;;;;;16.00;75.74;99720.25;5083615;28;20209;-77
2021/05/11 07:18:11;;;;;;;4.57;4.17;;;;;;;15.98;77.00;99719.47;5083704;28;20222;-78
2021/05/11 07:20:38;;;;;;;5.30;4.80;;;;;;;15.99;77.05;99726.41;5084352;28;20215;-77
2021/05/11 07:23:04;;;;;;;5.27;4.67;;;;;;;15.86;77.14;99724.44;5083733;28;20280;-78
2021/05/11 07:25:34;;;;;;;4.83;4.43;;;;;;;15.85;77.47;99714.81;5083050;28;20212;-77
2021/05/11 07:28:20;;;;;;;3.90;3.63;;;;;;;15.85;77.16;99700.81;5082702;28;20229;-78
2021/05/11 07:30:46;;;;;;;4.67;4.30;;;;;;;15.81;77.66;99683.50;5083550;28;20618;-76
2021/05/11 07:33:13;;;;;;;4.10;3.80;;;;;;;15.88;77.20;99671.72;5084182;28;20553;-78
2021/05/11 07:35:40;;;;;;;4.37;3.97;;;;;;;15.92;76.45;99660.09;5085207;28;20206;-78
2021/05/11 07:38:07;;;;;;;3.77;3.53;;;;;;;15.86;78.03;99663.91;5086605;28;20226;-78
2021/05/11 07:40:33;;;;;;;4.30;4.00;;;;;;;15.99;78.67;99665.88;5086468;28;20209;-79
2021/05/11 07:42:59;;;;;;;5.40;4.37;;;;;;;16.10;78.48;99673.22;5085372;28;20299;-79
2021/05/11 07:45:33;;;;;;;4.43;4.13;;;;;;;16.25;77.47;99662.69;5088237;28;20242;-78
2021/05/11 08:02:06;;;;;;;4.77;4.37;;;;;;;16.02;76.13;99634.97;5083034;28;20271;-77
2021/05/11 08:04:37;;;;;;;4.00;3.70;;;;;;;16.01;76.67;99654.31;5083586;28;20208;-78
2021/05/11 08:09:58;;;;;;;4.17;3.83;;;;;;;15.97;76.56;99655.41;5083404;28;20703;-77
2021/05/11 08:15:19;;;;;;;4.47;4.10;;;;;;;15.94;76.58;99645.06;5083146;28;20235;-78
2021/05/11 08:17:51;;;;;;;4.30;3.90;;;;;;;15.88;76.06;99635.72;5086166;28;20224;-78
2021/05/11 08:20:36;;;;;;;4.10;3.80;;;;;;;16.01;76.31;99649.06;5084289;28;20579;-77
2021/05/11 08:23:21;;;;;;;4.10;3.80;;;;;;;16.20;76.87;99661.25;5085287;28;20209;-79
2021/05/11 08:28:31;;;;;;;3.90;3.60;;;;;;;16.46;75.14;99651.88;5087868;28;20315;-77
2021/05/11 08:30:58;;;;;;;5.50;4.27;;;;;;;16.53;74.29;99650.63;5086852;28;20286;-77
2021/05/11 08:33:25;;;;;;;4.20;3.90;;;;;;;16.57;73.92;99652.16;5086634;28;20511;-77
2021/05/11 08:35:51;;;;;;;3.70;3.50;;;;;;;16.57;74.09;99649.50;5087872;28;20198;-77
2021/05/11 08:38:18;;;;;;;3.77;3.47;;;;;;;16.58;73.41;99642.44;5086833;28;20279;-78
2021/05/11 08:40:44;;;;;;;3.97;3.50;;;;;;;16.57;73.88;99638.09;5087674;28;20206;-77
2021/05/11 08:43:30;;;;;;;3.77;3.47;;;;;;;16.63;72.88;99633.34;5086614;28;20232;-79
2021/05/11 08:45:59;;;;;;;4.73;3.60;;;;;;;16.69;72.86;99624.25;5087110;28;20263;-79
2021/05/11 08:48:26;;;;;;;3.50;3.20;;;;;;;16.82;73.96;99619.13;5087627;28;20260;-79
2021/05/11 08:50:58;;;;;;;4.07;3.57;;;;;;;16.86;72.82;99621.50;5086611;28;20250;-78
2021/05/11 09:04:38;;;;;;;2.67;2.47;;;;;;;16.74;70.36;99648.53;5085574;28;20790;-75
2021/05/11 09:07:45;;;;;;;3.30;3.03;;;;;;;16.63;70.82;99641.25;5084504;28;20290;-75
2021/05/11 09:24:04;;;;;;;3.03;2.73;;;;;;;16.36;72.57;99621.75;5086172;28;20212;-76
2021/05/11 09:26:38;;;;;;;3.07;2.80;;;;;;;16.39;73.13;99634.72;5085579;28;20297;-77
2021/05/11 09:29:11;;;;;;;2.77;2.57;;;;;;;16.38;72.41;99651.47;5085738;28;20736;-76
2021/05/11 09:31:53;;;;;;;2.77;2.53;;;;;;;16.42;71.96;99650.38;5086106;28;20233;-77
2021/05/11 09:34:27;;;;;;;3.30;3.00;;;;;;;16.41;71.43;99648.66;5085670;28;20207;-77
2021/05/11 09:45:39;;;;;;;2.60;2.40;;;;;;;16.34;72.07;99636.78;5085076;28;20869;-76
2021/05/11 09:56:34;;;;;;;3.10;2.50;;;;;;;16.28;71.62;99680.94;5085331;28;20270;-76
2021/05/11 10:48:21;;;;;;;2.87;1.87;;;;;;;16.17;70.50;99599.03;5083177;28;20234;-76
2021/05/11 10:50:50;;;;;;;2.87;2.20;;;;;;;16.20;69.87;99596.25;5084064;28;20211;-77
2021/05/11 10:53:42;;;;;;;3.33;2.30;;;;;;;16.26;69.70;99602.97;5083429;28;20212;-76
2021/05/11 10:56:53;;;;;;;3.20;2.20;;;;;;;16.38;69.45;99607.53;5083551;28;20644;-77
2021/05/11 10:59:37;;;;;;;3.13;2.40;;;;;;;16.42;69.79;99613.50;5083615;28;20283;-77
2021/05/11 11:02:25;;;;;;;3.00;2.70;;;;;;;16.51;69.42;99612.97;5083627;28;20905;-76
2021/05/11 11:04:51;;;;;;;2.80;2.27;;;;;;;16.58;68.39;99614.31;5084010;28;20205;-77
2021/05/11 11:07:18;;;;;;;3.27;3.00;;;;;;;16.65;68.45;99622.72;5083568;28;20323;-76
2021/05/11 11:09:55;;;;;;;2.90;2.70;;;;;;;16.63;67.73;99628.09;5083613;28;20206;-77
2021/05/11 11:12:21;;;;;;;2.30;2.10;;;;;;;16.71;68.61;99632.03;5083910;28;20764;-78
2021/05/11 11:14:48;;;;;;;2.77;2.10;;;;;;;16.68;67.91;99622.53;5082950;28;20221;-77
2021/05/11 11:17:15;;;;;;;2.50;2.30;;;;;;;16.75;67.70;99615.13;5083549;28;20203;-76
2021/05/11 11:19:49;;;;;;;3.93;2.30;;;;;;;16.80;67.56;99613.91;5082878;28;20701;-76
2021/05/11 11:25:01;;;;;;;2.43;2.23;;;;;;;16.60;68.66;99611.59;5082704;28;20223;-77
2021/05/11 11:27:28;;;;;;;2.67;2.30;;;;;;;16.73;68.71;99624.91;5083197;28;20270;-77
2021/05/11 11:30:00;;;;;;;3.40;2.53;;;;;;;16.74;69.12;99616.06;5083494;28;20201;-78
2021/05/11 11:32:26;;;;;;;3.10;2.00;;;;;;;16.83;69.06;99613.78;5083079;28;20675;-78
2021/05/11 11:34:53;;;;;;;2.57;2.37;;;;;;;17.00;68.67;99622.50;5083251;28;20214;-77
2021/05/11 11:37:19;;;;;;;2.37;1.93;;;;;;;17.16;67.68;99623.28;5082408;28;20206;-76
2021/05/11 11:39:46;;;;;;;3.67;2.90;;;;;;;17.16;66.68;99633.81;5082671;28;20245;-77
2021/05/11 11:42:17;;;;;;;3.37;2.57;;;;;;;17.21;67.17;99636.22;5083274;28;20292;-76
2021/05/11 11:44:43;;;;;;;2.90;2.10;;;;;;;17.31;66.65;99628.59;5083267;28;20214;-76
2021/05/11 11:47:11;;;;;;;3.73;2.47;;;;;;;17.35;67.16;99630.09;5084771;28;20231;-77
2021/05/11 11:49:41;;;;;;;3.90;2.80;;;;;;;17.47;65.94;99624.94;5082856;28;20261;-76
2021/05/11 11:52:11;;;;;;;4.47;2.47;;;;;;;17.61;65.42;99615.31;5083363;28;20682;-77
2021/05/11 11:54:41;;;;;;;2.40;2.20;;;;;;;17.70;65.22;99609.50;5082560;28;20210;-77
2021/05/11 12:00:04;;;;;;;2.50;2.20;;;;;;;18.05;64.58;99591.44;5082674;28;20252;-77
2021/05/11 12:02:31;;;;;;;2.87;2.40;;;;;;;18.22;64.31;99592.19;5082352;28;21341;-76
2021/05/11 12:05:09;;;;;;;3.20;2.47;;;;;;;18.32;63.94;99595.09;5083111;28;20253;-77
2021/05/11 12:07:43;;;;;;;3.73;2.40;;;;;;;18.36;64.17;99596.56;5082412;28;20808;-77
2021/05/11 12:10:10;;;;;;;3.17;2.67;;;;;;;18.46;62.82;99592.38;5084419;28;20213;-77
2021/05/11 12:12:36;;;;;;;4.83;2.83;;;;;;;18.50;62.09;99578.03;5082747;28;20218;-76
2021/05/11 12:15:10;;;;;;;3.43;3.23;;;;;;;18.36;60.86;99578.09;5083531;28;20235;-77
2021/05/11 12:17:36;;;;;;;3.83;2.70;;;;;;;18.19;62.47;99569.44;5083042;28;20228;-77
2021/05/11 12:20:21;;;;;;;3.20;2.70;;;;;;;18.17;64.47;99579.25;5082991;28;20593;-77
2021/05/11 12:22:47;;;;;;;3.77;3.20;;;;;;;18.16;62.95;99579.38;5082548;28;20220;-76
2021/05/11 12:25:22;;;;;;;3.17;2.87;;;;;;;17.92;63.77;99593.19;5083968;28;20224;-77
2021/05/11 12:27:48;;;;;;;3.37;3.07;;;;;;;17.93;63.66;99596.66;5082997;28;20714;-77
2021/05/11 12:30:15;;;;;;;4.23;3.20;;;;;;;17.94;63.36;99599.22;5083942;28;20728;-77
2021/05/11 12:32:41;;;;;;;4.30;3.87;;;;;;;17.98;62.97;99599.88;5082605;28;20211;-78
2021/05/11 12:35:08;;;;;;;3.50;2.85;;;;;;;18.00;63.31;99604.13;4381681;27;10021561;-78
2021/05/11 12:37:50;;;;;;;4.20;3.80;;;;;;;18.12;63.35;99607.78;5079577;28;20318;-77
2021/05/11 12:40:28;;;;;;;4.33;4.13;;;;;;;18.18;63.13;99611.81;5080257;28;20217;-77
2021/05/11 12:42:56;;;;;;;4.00;3.70;;;;;;;17.62;62.13;99611.72;5079435;28;20221;-76
2021/05/11 12:45:23;;;;;;;3.70;3.50;;;;;;;16.84;64.41;99620.75;5079502;28;20224;-76
2021/05/11 12:47:52;;;;;;;4.50;3.50;;;;;;;16.97;66.02;99620.06;5078399;28;20256;-77
2021/05/11 12:50:21;;;;;;;4.00;3.33;;;;;;;17.19;65.66;99619.63;5079750;28;20212;-77
2021/05/11 12:52:50;;;;;;;5.53;3.03;;;;;;;17.05;65.61;99633.63;5078194;28;20735;-78
2021/05/11 12:55:50;;;;;;;2.90;2.40;;;;;;;17.33;65.07;99634.63;5078124;28;20287;-77
2021/05/11 12:58:27;;;;;;;2.97;2.20;;;;;;;17.10;66.32;99635.97;5080730;28;20349;-77
2021/05/11 13:01:01;;;;;;;2.67;2.40;;;;;;;16.85;66.01;99643.53;5078230;28;20319;-77
2021/05/11 13:03:45;;;;;;;2.50;2.30;;;;;;;16.94;66.18;99644.78;5080346;28;20242;-77
2021/05/11 13:15:05;;;;;;;2.90;2.40;;;;;;;16.90;67.07;99639.78;5083981;28;20301;-77
2021/05/11 13:19:47;;;;;;;2.50;2.30;;;;;;;16.97;66.61;99643.78;5083975;28;20225;-77
2021/05/11 13:23:18;;;;;;;2.00;1.87;;;;;;;17.00;66.37;99625.13;5080940;28;20225;-77
2021/05/11 13:25:46;;;;;;;2.90;2.30;;;;;;;16.86;65.48;99618.03;5084780;28;20207;-77
2021/05/11 13:28:16;;;;;;;2.73;2.10;;;;;;;17.16;66.04;99625.91;5085034;28;20624;-77
2021/05/11 13:30:49;;;;;;;3.87;2.43;;;;;;;16.99;65.52;99619.00;5084852;28;20681;-76
2021/05/11 13:33:25;;;;;;;4.23;2.47;;;;;;;17.10;66.22;99614.88;5082796;28;20207;-77
2021/05/11 13:35:51;;;;;;;4.97;2.50;;;;;;;17.37;64.98;99601.84;5083962;28;20242;-77
2021/05/11 13:38:17;;;;;;;2.53;2.10;;;;;;;17.59;64.78;99601.38;5083061;28;20223;-77
2021/05/11 13:40:43;;;;;;;2.13;1.70;;;;;;;17.63;64.28;99602.88;5084473;28;20207;-77
2021/05/11 13:43:09;;;;;;;2.10;1.83;;;;;;;17.55;64.28;99599.88;5083899;28;20218;-77
2021/05/11 13:45:35;;;;;;;2.57;2.17;;;;;;;17.36;64.37;99603.66;5082576;28;21065;-76
2021/05/11 13:48:03;;;;;;;2.77;2.33;;;;;;;17.48;63.90;99607.28;5082391;28;20231;-77
2021/05/11 13:50:42;;;;;;;2.47;2.23;;;;;;;17.24;65.23;99614.91;5082115;28;20207;-77
2021/05/11 13:53:09;;;;;;;4.17;2.73;;;;;;;17.00;66.25;99610.16;5082515;28;20771;-77
2021/05/11 13:55:41;;;;;;;3.37;2.50;;;;;;;17.18;66.40;99615.28;5082265;28;20287;-77
2021/05/11 14:03:35;;;;;;;3.07;2.30;;;;;;;17.10;66.75;99612.25;5082360;28;20226;-77
2021/05/11 14:06:01;;;;;;;3.90;2.60;;;;;;;17.22;66.52;99604.47;5082079;28;20683;-77
2021/05/11 14:08:27;;;;;;;2.03;1.90;;;;;;;17.41;66.20;99600.72;5081918;28;20249;-78
2021/05/11 14:10:53;;;;;;;3.37;2.40;;;;;;;17.41;65.63;99611.28;5083134;28;20286;-77
2021/05/11 14:13:19;;;;;;;2.40;2.20;;;;;;;16.92;65.98;99617.66;5080613;28;20222;-76
2021/05/11 14:15:45;;;;;;;3.20;2.50;;;;;;;16.67;67.78;99618.22;5082147;28;20217;-77
2021/05/11 14:18:11;;;;;;;3.70;2.30;;;;;;;16.55;68.12;99614.50;5081453;28;20717;-76
2021/05/11 14:20:37;;;;;;;3.37;2.47;;;;;;;16.59;67.97;99626.56;5080915;28;20994;-77
2021/05/11 14:23:03;;;;;;;2.23;2.03;;;;;;;16.53;67.88;99626.91;5081266;28;20209;-77
2021/05/11 14:25:29;;;;;;;3.40;2.43;;;;;;;16.67;69.08;99626.13;5080310;28;20197;-77
2021/05/11 14:27:55;;;;;;;2.07;1.87;;;;;;;16.79;67.94;99630.69;5080690;28;20308;-77
2021/05/11 14:30:22;;;;;;;2.03;1.83;;;;;;;16.70;68.08;99631.19;5080823;28;20306;-77
2021/05/11 14:32:48;;;;;;;3.23;1.90;;;;;;;16.72;68.07;99631.97;5081285;28;20211;-78
2021/05/11 14:35:14;;;;;;;2.60;2.17;;;;;;;16.85;68.30;99632.16;5081571;28;20259;-77